Time;durP1;ratioP1;P1;durP2;ratioP2;P2;SDS_P1;SDS_P2;PMS_P1;PMS_P2;Temp;Humidity;BMP_temperature;BMP_pressure;BME280_temperature;BME280_humidity;BME280_pressure;Samples;Min_cycle;Max_cycle;Signal;HPM_P1;HPM_P2
2022/09/01 00:01:23;;;;;;;7.20;3.30;;;;;;;;;;751593;185;920452;-51
2022/09/01 00:03:47;;;;;;;5.70;3.30;;;;;;;;;;754684;184;919284;-51
2022/09/01 00:06:13;;;;;;;8.47;3.57;;;;;;;;;;756017;185;920015;-50
2022/09/01 00:08:39;;;;;;;5.27;3.30;;;;;;;;;;747995;186;920206;-56
2022/09/01 00:11:04;;;;;;;5.13;2.83;;;;;;;;;;748638;185;919570;-51
2022/09/01 00:13:32;;;;;;;6.00;3.80;;;;;;;;;;754560;186;818573;-51
2022/09/01 00:15:56;;;;;;;5.50;3.30;;;;;;;;;;755586;184;922179;-51
2022/09/01 00:18:22;;;;;;;6.93;3.70;;;;;;;;;;748001;185;920117;-51
2022/09/01 00:20:48;;;;;;;7.87;3.90;;;;;;;;;;750540;182;919466;-51
2022/09/01 00:23:14;;;;;;;6.63;3.50;;;;;;;;;;762637;183;716900;-51
2022/09/01 00:25:40;;;;;;;8.50;4.00;;;;;;;;;;753956;184;919645;-51
2022/09/01 00:28:05;;;;;;;7.27;3.87;;;;;;;;;;754191;184;919084;-51
2022/09/01 00:30:31;;;;;;;7.23;3.40;;;;;;;;;;753846;185;919664;-51
2022/09/01 00:32:57;;;;;;;9.50;3.70;;;;;;;;;;757082;184;918157;-50
2022/09/01 00:35:23;;;;;;;12.03;3.93;;;;;;;;;;758482;184;819177;-51
2022/09/01 00:37:49;;;;;;;9.23;4.00;;;;;;;;;;763546;184;615178;-51
2022/09/01 00:40:15;;;;;;;6.20;3.20;;;;;;;;;;749768;184;941625;-50
2022/09/01 00:42:40;;;;;;;7.93;3.80;;;;;;;;;;753909;183;920029;-51
2022/09/01 00:45:07;;;;;;;7.47;4.15;;;;;;;;;;752415;181;918836;-52
2022/09/01 00:47:34;;;;;;;6.47;3.57;;;;;;;;;;760532;184;919344;-51
2022/09/01 00:49:59;;;;;;;5.27;3.40;;;;;;;;;;754174;184;917759;-51
2022/09/01 00:52:26;;;;;;;6.80;4.10;;;;;;;;;;762047;184;637964;-52
2022/09/01 00:54:52;;;;;;;6.37;3.50;;;;;;;;;;760433;185;630802;-52
2022/09/01 00:57:18;;;;;;;6.67;3.60;;;;;;;;;;756279;184;615310;-52
2022/09/01 00:59:45;;;;;;;4.80;3.30;;;;;;;;;;757015;185;625991;-52
2022/09/01 01:02:10;;;;;;;6.43;3.80;;;;;;;;;;755973;180;626701;-52
2022/09/01 01:04:36;;;;;;;8.60;4.40;;;;;;;;;;753244;185;818398;-51
2022/09/01 01:07:02;;;;;;;10.10;4.40;;;;;;;;;;749391;182;919570;-51
2022/09/01 01:09:28;;;;;;;5.33;3.60;;;;;;;;;;756876;184;919588;-52
2022/09/01 01:11:58;;;;;;;8.70;4.43;;;;;;;;;;755902;185;819015;-51
2022/09/01 01:14:20;;;;;;;6.57;3.10;;;;;;;;;;748697;184;920000;-51
2022/09/01 01:16:46;;;;;;;7.60;4.67;;;;;;;;;;753228;185;919650;-52
2022/09/01 01:24:36;;;;;;;8.67;4.00;;;;;;;;;;757476;184;803482;-52
2022/09/01 01:27:04;;;;;;;7.40;4.28;;;;;;;;;;751596;184;919741;-52
2022/09/01 01:29:30;;;;;;;6.53;4.40;;;;;;;;;;751063;185;1018809;-53
2022/09/01 01:31:55;;;;;;;5.60;3.70;;;;;;;;;;754651;182;916742;-52
2022/09/01 01:34:22;;;;;;;6.70;3.60;;;;;;;;;;752306;182;923015;-52
2022/09/01 01:36:47;;;;;;;5.63;3.47;;;;;;;;;;752907;185;920165;-52
2022/09/01 01:39:14;;;;;;;6.62;3.62;;;;;;;;;;752025;184;937753;-53
2022/09/01 01:41:43;;;;;;;10.47;4.57;;;;;;;;;;764625;182;920112;-52
2022/09/01 01:44:05;;;;;;;13.00;3.90;;;;;;;;;;756714;184;920004;-52
2022/09/01 01:46:32;;;;;;;5.90;3.50;;;;;;;;;;750753;185;919646;-53
2022/09/01 01:49:00;;;;;;;6.28;3.55;;;;;;;;;;756267;185;925325;-53
2022/09/01 01:51:26;;;;;;;5.73;3.77;;;;;;;;;;755840;184;920308;-53
2022/09/01 01:53:51;;;;;;;5.43;3.47;;;;;;;;;;751463;182;920525;-53
2022/09/01 01:56:17;;;;;;;7.47;4.35;;;;;;;;;;758914;183;919450;-53
2022/09/01 01:58:43;;;;;;;9.07;3.93;;;;;;;;;;751405;184;919545;-53
2022/09/01 02:01:11;;;;;;;4.73;3.63;;;;;;;;;;760232;184;918590;-53
2022/09/01 02:03:37;;;;;;;9.70;3.97;;;;;;;;;;750586;186;919469;-53
2022/09/01 02:06:06;;;;;;;6.13;3.53;;;;;;;;;;750210;186;918390;-53
2022/09/01 02:08:26;;;;;;;9.77;4.00;;;;;;;;;;752820;185;921341;-53
2022/09/01 02:10:52;;;;;;;7.17;3.70;;;;;;;;;;749012;180;919653;-53
2022/09/01 02:13:19;;;;;;;7.43;4.40;;;;;;;;;;757794;184;918516;-53
2022/09/01 02:15:44;;;;;;;11.63;3.50;;;;;;;;;;751585;185;920310;-53
2022/09/01 02:18:13;;;;;;;7.57;4.53;;;;;;;;;;751523;184;919585;-53
2022/09/01 02:20:37;;;;;;;6.23;3.83;;;;;;;;;;758484;184;919226;-52
2022/09/01 02:23:08;;;;;;;7.40;3.97;;;;;;;;;;749164;184;921394;-53
2022/09/01 02:25:30;;;;;;;9.00;4.43;;;;;;;;;;754809;185;922209;-53
2022/09/01 02:27:54;;;;;;;15.37;3.80;;;;;;;;;;756548;185;819530;-53
2022/09/01 02:30:21;;;;;;;7.20;3.60;;;;;;;;;;761797;185;920984;-53
2022/09/01 02:32:46;;;;;;;11.40;4.23;;;;;;;;;;756846;185;918039;-57
2022/09/01 02:35:12;;;;;;;12.05;5.68;;;;;;;;;;752919;184;920070;-53
2022/09/01 02:37:38;;;;;;;13.40;4.60;;;;;;;;;;764809;184;920281;-53
2022/09/01 02:40:04;;;;;;;5.57;4.10;;;;;;;;;;751906;184;916431;-53
2022/09/01 02:42:30;;;;;;;6.10;3.40;;;;;;;;;;753488;181;816341;-53
2022/09/01 02:44:57;;;;;;;6.13;3.80;;;;;;;;;;763019;184;626081;-52
2022/09/01 02:47:22;;;;;;;9.27;3.77;;;;;;;;;;752615;185;628572;-53
2022/09/01 02:49:47;;;;;;;8.57;4.30;;;;;;;;;;753178;185;919795;-53
2022/09/01 02:52:16;;;;;;;14.13;5.40;;;;;;;;;;755996;182;916948;-54
2022/09/01 02:54:39;;;;;;;12.57;4.57;;;;;;;;;;759157;182;626560;-53
2022/09/01 02:57:07;;;;;;;14.60;4.40;;;;;;;;;;755071;184;920257;-53
2022/09/01 02:59:31;;;;;;;8.23;4.30;;;;;;;;;;754898;185;918282;-54
2022/09/01 03:01:56;;;;;;;8.97;4.13;;;;;;;;;;757336;184;921875;-53
2022/09/01 03:04:23;;;;;;;7.27;4.80;;;;;;;;;;755133;184;941760;-54
2022/09/01 03:06:49;;;;;;;6.80;4.60;;;;;;;;;;757232;182;908658;-53
2022/09/01 03:09:14;;;;;;;17.60;4.23;;;;;;;;;;757200;184;919905;-54
2022/09/01 03:11:40;;;;;;;7.30;4.50;;;;;;;;;;751599;184;920796;-52
2022/09/01 03:14:06;;;;;;;7.93;3.93;;;;;;;;;;758292;184;920785;-53
2022/09/01 03:16:32;;;;;;;10.60;5.33;;;;;;;;;;761824;184;915158;-53
2022/09/01 03:18:57;;;;;;;15.90;5.33;;;;;;;;;;753051;184;919544;-53
2022/09/01 03:21:23;;;;;;;7.67;4.80;;;;;;;;;;752289;184;919718;-53
2022/09/01 03:23:49;;;;;;;8.10;5.00;;;;;;;;;;760539;184;919956;-53
2022/09/01 03:26:17;;;;;;;7.03;5.17;;;;;;;;;;761207;185;817317;-53
2022/09/01 03:28:41;;;;;;;12.37;5.33;;;;;;;;;;758155;184;817078;-52
2022/09/01 03:31:07;;;;;;;6.57;5.03;;;;;;;;;;752452;183;928326;-53
2022/09/01 03:33:33;;;;;;;9.63;4.63;;;;;;;;;;754590;183;920070;-53
2022/09/01 03:35:58;;;;;;;12.13;5.80;;;;;;;;;;757817;181;920015;-53
2022/09/01 03:38:25;;;;;;;9.73;4.60;;;;;;;;;;755592;182;919640;-53
2022/09/01 03:40:51;;;;;;;8.57;4.15;;;;;;;;;;755444;184;919390;-53
2022/09/01 03:43:18;;;;;;;6.27;4.00;;;;;;;;;;755068;184;919830;-53
2022/09/01 03:45:43;;;;;;;10.50;5.20;;;;;;;;;;754190;183;919931;-52
2022/09/01 03:48:09;;;;;;;7.53;5.07;;;;;;;;;;749971;184;915825;-55
2022/09/01 03:50:35;;;;;;;7.93;4.77;;;;;;;;;;760641;184;863721;-53
2022/09/01 03:53:00;;;;;;;10.47;4.53;;;;;;;;;;754904;183;915413;-53
2022/09/01 03:55:27;;;;;;;10.30;4.43;;;;;;;;;;753754;180;921430;-53
2022/09/01 03:57:52;;;;;;;5.70;4.17;;;;;;;;;;760167;182;816546;-52
2022/09/01 04:00:22;;;;;;;9.60;4.80;;;;;;;;;;751558;185;922650;-52
2022/09/01 04:02:48;;;;;;;7.47;4.77;;;;;;;;;;757250;184;919777;-52
2022/09/01 04:05:12;;;;;;;7.33;5.17;;;;;;;;;;752943;185;919494;-54
2022/09/01 04:07:37;;;;;;;7.07;4.47;;;;;;;;;;754881;184;921557;-53
2022/09/01 04:10:04;;;;;;;9.57;5.70;;;;;;;;;;747073;185;919398;-54
2022/09/01 04:12:30;;;;;;;7.13;4.93;;;;;;;;;;748569;181;913577;-54
2022/09/01 04:14:55;;;;;;;8.43;5.57;;;;;;;;;;757384;182;914282;-53
2022/09/01 04:19:53;;;;;;;9.23;6.30;;;;;;;;;;754629;183;917716;-53
2022/09/01 04:22:19;;;;;;;12.00;6.77;;;;;;;;;;760112;184;917640;-53
2022/09/01 04:24:45;;;;;;;11.50;6.10;;;;;;;;;;751191;186;906720;-53
2022/09/01 04:27:11;;;;;;;11.63;5.90;;;;;;;;;;752254;184;919562;-53
2022/09/01 04:29:36;;;;;;;13.43;6.00;;;;;;;;;;753810;184;919714;-53
2022/09/01 04:32:04;;;;;;;9.05;5.80;;;;;;;;;;754706;184;919928;-53
2022/09/01 04:34:35;;;;;;;12.30;7.03;;;;;;;;;;757271;184;919396;-53
2022/09/01 04:36:55;;;;;;;8.40;5.90;;;;;;;;;;752451;185;918716;-53
2022/09/01 04:39:20;;;;;;;11.37;8.07;;;;;;;;;;754224;185;914250;-52
2022/09/01 04:41:46;;;;;;;11.50;10.03;;;;;;;;;;753909;184;920328;-53
2022/09/01 04:44:13;;;;;;;12.53;6.73;;;;;;;;;;755549;184;915754;-53
2022/09/01 04:46:39;;;;;;;9.33;6.93;;;;;;;;;;755852;185;818591;-53
2022/09/01 04:49:08;;;;;;;11.20;7.33;;;;;;;;;;761876;181;632553;-53
2022/09/01 04:51:31;;;;;;;7.90;6.63;;;;;;;;;;753159;180;626022;-53
2022/09/01 04:53:56;;;;;;;7.60;6.37;;;;;;;;;;755943;184;918418;-54
2022/09/01 04:56:22;;;;;;;8.90;7.13;;;;;;;;;;752514;185;908449;-53
2022/09/01 04:58:48;;;;;;;11.53;7.10;;;;;;;;;;753994;184;919562;-52
2022/09/01 05:01:14;;;;;;;11.40;6.83;;;;;;;;;;753070;184;919797;-52
2022/09/01 05:03:39;;;;;;;10.30;7.27;;;;;;;;;;755373;182;921128;-53
2022/09/01 05:06:07;;;;;;;10.13;8.20;;;;;;;;;;754927;184;714324;-53
2022/09/01 05:08:34;;;;;;;12.63;7.57;;;;;;;;;;753274;184;919759;-52
2022/09/01 05:10:57;;;;;;;11.83;7.60;;;;;;;;;;755039;183;865024;-53
2022/09/01 05:13:23;;;;;;;9.80;6.77;;;;;;;;;;756452;184;919638;-52
2022/09/01 05:15:49;;;;;;;15.30;7.57;;;;;;;;;;751958;185;918243;-53
2022/09/01 05:18:15;;;;;;;13.63;7.90;;;;;;;;;;756488;185;634986;-53
2022/09/01 05:20:41;;;;;;;7.93;6.93;;;;;;;;;;754357;184;917415;-53
2022/09/01 05:23:07;;;;;;;9.10;7.30;;;;;;;;;;757367;184;822699;-53
2022/09/01 05:25:33;;;;;;;12.80;6.73;;;;;;;;;;751867;185;653177;-53
2022/09/01 05:27:58;;;;;;;12.87;7.90;;;;;;;;;;753794;185;920141;-54
2022/09/01 05:30:27;;;;;;;9.03;6.47;;;;;;;;;;758150;182;816872;-53
2022/09/01 05:32:51;;;;;;;12.82;8.02;;;;;;;;;;754517;184;919565;-52
2022/09/01 05:35:16;;;;;;;8.93;7.00;;;;;;;;;;754550;181;922788;-52
2022/09/01 05:37:42;;;;;;;11.47;6.87;;;;;;;;;;756759;184;921348;-52
2022/09/01 05:40:14;;;;;;;15.82;6.75;;;;;;;;;;752062;184;927710;-53
2022/09/01 05:42:38;;;;;;;12.03;6.80;;;;;;;;;;753630;184;817655;-51
2022/09/01 05:45:01;;;;;;;10.40;7.13;;;;;;;;;;748914;184;920010;-52
2022/09/01 05:47:27;;;;;;;10.97;6.40;;;;;;;;;;752709;185;828351;-52
2022/09/01 05:49:54;;;;;;;10.60;6.83;;;;;;;;;;754734;184;917305;-52
2022/09/01 05:52:25;;;;;;;7.40;5.70;;;;;;;;;;755354;184;917631;-52
2022/09/01 05:54:46;;;;;;;9.13;6.43;;;;;;;;;;750180;184;900382;-52
2022/09/01 05:57:10;;;;;;;11.53;6.10;;;;;;;;;;752172;184;916390;-53
2022/09/01 05:59:39;;;;;;;9.83;6.10;;;;;;;;;;758344;184;919881;-53
2022/09/01 06:02:03;;;;;;;11.37;6.13;;;;;;;;;;757900;182;916450;-53
2022/09/01 06:04:29;;;;;;;8.43;5.97;;;;;;;;;;748244;182;918978;-53
2022/09/01 06:06:55;;;;;;;11.57;6.53;;;;;;;;;;755875;185;919444;-52
2022/09/01 06:09:22;;;;;;;11.97;5.67;;;;;;;;;;746065;185;919664;-52
2022/09/01 06:11:45;;;;;;;7.10;5.47;;;;;;;;;;753373;184;920046;-52
2022/09/01 06:14:11;;;;;;;13.00;5.77;;;;;;;;;;747905;185;920129;-53
2022/09/01 06:16:37;;;;;;;6.57;5.55;;;;;;;;;;756279;184;919592;-52
2022/09/01 06:19:03;;;;;;;8.10;5.30;;;;;;;;;;752288;184;919833;-52
2022/09/01 06:21:30;;;;;;;11.10;6.22;;;;;;;;;;757961;181;817384;-53
2022/09/01 06:23:55;;;;;;;8.83;6.00;;;;;;;;;;756985;182;815297;-52
2022/09/01 06:26:22;;;;;;;9.90;5.03;;;;;;;;;;750975;185;766566;-53
2022/09/01 06:28:46;;;;;;;5.93;4.80;;;;;;;;;;754418;184;817514;-53
2022/09/01 06:31:13;;;;;;;12.13;6.13;;;;;;;;;;758486;182;918499;-53
2022/09/01 06:33:39;;;;;;;7.75;4.75;;;;;;;;;;752884;185;861216;-52
2022/09/01 06:36:04;;;;;;;8.27;5.37;;;;;;;;;;754578;184;919864;-52
2022/09/01 06:38:30;;;;;;;7.50;5.60;;;;;;;;;;754020;184;920210;-52
2022/09/01 06:40:58;;;;;;;7.70;5.53;;;;;;;;;;756841;183;918096;-52
2022/09/01 06:43:24;;;;;;;8.43;5.50;;;;;;;;;;754789;184;816681;-52
2022/09/01 06:45:53;;;;;;;7.30;5.40;;;;;;;;;;753729;184;919470;-53
2022/09/01 06:48:16;;;;;;;10.93;6.40;;;;;;;;;;760936;182;908273;-52
2022/09/01 06:50:42;;;;;;;9.10;6.60;;;;;;;;;;754344;184;918967;-52
2022/09/01 06:53:09;;;;;;;15.90;6.63;;;;;;;;;;756104;184;919693;-53
2022/09/01 06:55:36;;;;;;;11.60;6.80;;;;;;;;;;757043;184;919302;-52
2022/09/01 06:57:59;;;;;;;9.27;5.80;;;;;;;;;;750754;184;919998;-52
2022/09/01 07:00:27;;;;;;;11.37;6.50;;;;;;;;;;749865;184;920152;-52
2022/09/01 07:02:52;;;;;;;9.20;5.90;;;;;;;;;;754206;184;920122;-52
2022/09/01 07:05:18;;;;;;;8.43;5.27;;;;;;;;;;763993;183;822917;-53
2022/09/01 07:07:48;;;;;;;12.90;5.40;;;;;;;;;;748567;185;814232;-52
2022/09/01 07:10:13;;;;;;;9.80;5.33;;;;;;;;;;755234;184;919347;-52
2022/09/01 07:12:40;;;;;;;13.70;5.40;;;;;;;;;;758104;185;919922;-56
2022/09/01 07:15:03;;;;;;;13.13;5.00;;;;;;;;;;757917;184;919828;-53
2022/09/01 07:17:29;;;;;;;7.90;4.70;;;;;;;;;;750848;182;919670;-50
2022/09/01 07:19:56;;;;;;;9.17;4.83;;;;;;;;;;755365;185;816823;-53
2022/09/01 07:22:21;;;;;;;12.33;5.27;;;;;;;;;;751397;184;920437;-52
2022/09/01 07:24:47;;;;;;;7.37;5.37;;;;;;;;;;752283;183;918703;-52
2022/09/01 07:27:13;;;;;;;7.00;4.47;;;;;;;;;;752475;184;920374;-58
2022/09/01 07:29:38;;;;;;;7.60;5.00;;;;;;;;;;757318;184;918882;-52
2022/09/01 07:32:05;;;;;;;6.20;4.10;;;;;;;;;;746065;185;919313;-52
2022/09/01 07:34:32;;;;;;;8.10;5.30;;;;;;;;;;749389;182;939917;-53
2022/09/01 07:36:58;;;;;;;6.60;4.70;;;;;;;;;;757997;184;919370;-52
2022/09/01 07:39:22;;;;;;;8.30;5.20;;;;;;;;;;750021;184;816871;-53
2022/09/01 07:41:48;;;;;;;6.83;5.30;;;;;;;;;;756118;184;924185;-53
2022/09/01 07:44:14;;;;;;;6.30;4.83;;;;;;;;;;751383;185;919328;-52
2022/09/01 07:46:40;;;;;;;7.70;4.40;;;;;;;;;;737849;187;919208;-52
2022/09/01 07:49:05;;;;;;;10.52;5.40;;;;;;;;;;754439;185;819293;-52
2022/09/01 07:51:32;;;;;;;8.57;4.67;;;;;;;;;;755217;184;847455;-53
2022/09/01 07:53:57;;;;;;;8.47;5.20;;;;;;;;;;749197;185;819647;-52
2022/09/01 07:56:23;;;;;;;10.13;5.87;;;;;;;;;;754636;182;908673;-56
2022/09/01 07:58:49;;;;;;;10.27;4.83;;;;;;;;;;754820;182;817679;-53
2022/09/01 08:01:16;;;;;;;8.30;5.30;;;;;;;;;;763875;184;910652;-53
2022/09/01 08:03:40;;;;;;;6.90;4.20;;;;;;;;;;756700;184;811727;-52
2022/09/01 08:06:06;;;;;;;9.20;5.43;;;;;;;;;;748273;184;922967;-53
2022/09/01 08:08:32;;;;;;;7.53;4.63;;;;;;;;;;762852;184;637387;-52
2022/09/01 08:10:58;;;;;;;6.00;3.87;;;;;;;;;;751799;182;915684;-53
2022/09/01 08:13:24;;;;;;;8.17;5.17;;;;;;;;;;757597;184;843017;-52
2022/09/01 08:15:50;;;;;;;12.65;4.97;;;;;;;;;;758417;184;829605;-52
2022/09/01 08:18:16;;;;;;;13.43;4.67;;;;;;;;;;751463;185;868770;-53
2022/09/01 08:20:46;;;;;;;11.10;4.80;;;;;;;;;;748046;184;913594;-53
2022/09/01 08:23:11;;;;;;;7.60;4.77;;;;;;;;;;755902;184;919472;-53
2022/09/01 08:25:37;;;;;;;9.30;4.80;;;;;;;;;;759350;184;915464;-53
2022/09/01 08:28:03;;;;;;;9.80;4.80;;;;;;;;;;755602;184;920166;-53
2022/09/01 08:30:31;;;;;;;5.00;3.97;;;;;;;;;;747854;184;917985;-53
2022/09/01 08:32:55;;;;;;;8.10;4.90;;;;;;;;;;756246;185;921284;-53
2022/09/01 08:35:20;;;;;;;7.87;4.43;;;;;;;;;;749226;182;920044;-53
2022/09/01 08:37:46;;;;;;;7.20;4.70;;;;;;;;;;757430;182;901133;-53
2022/09/01 08:40:13;;;;;;;9.53;5.33;;;;;;;;;;753257;184;919852;-53
2022/09/01 08:42:55;;;;;;;8.70;5.40;;;;;;;;;;755741;185;916774;-53
2022/09/01 08:45:21;;;;;;;8.30;4.90;;;;;;;;;;753424;184;920717;-53
2022/09/01 08:47:46;;;;;;;12.03;4.60;;;;;;;;;;751680;184;818937;-52
2022/09/01 08:50:12;;;;;;;7.75;4.12;;;;;;;;;;748263;185;917796;-53
2022/09/01 08:52:38;;;;;;;8.43;4.10;;;;;;;;;;758093;184;842248;-52
2022/09/01 08:55:20;;;;;;;6.97;4.53;;;;;;;;;;756525;183;811996;-53
2022/09/01 08:57:46;;;;;;;5.43;4.10;;;;;;;;;;756077;180;812427;-54
2022/09/01 09:00:12;;;;;;;5.50;3.60;;;;;;;;;;752148;185;815121;-53
2022/09/01 09:02:45;;;;;;;4.50;3.50;;;;;;;;;;755883;184;825084;-53
2022/09/01 09:05:16;;;;;;;9.70;4.03;;;;;;;;;;765246;182;843487;-53
2022/09/01 09:08:01;;;;;;;6.27;3.40;;;;;;;;;;751455;184;918377;-56
2022/09/01 09:10:29;;;;;;;4.53;3.20;;;;;;;;;;752929;184;920361;-53
2022/09/01 09:12:55;;;;;;;7.47;3.30;;;;;;;;;;750673;184;919263;-53
2022/09/01 09:15:22;;;;;;;5.90;3.30;;;;;;;;;;753478;184;761113;-53
2022/09/01 09:17:49;;;;;;;5.07;2.73;;;;;;;;;;766352;181;817268;-53
2022/09/01 09:20:16;;;;;;;4.10;2.97;;;;;;;;;;749186;184;919573;-53
2022/09/01 09:22:41;;;;;;;5.78;3.10;;;;;;;;;;755365;184;904577;-52
2022/09/01 09:25:09;;;;;;;6.50;2.63;;;;;;;;;;754238;185;921538;-53
2022/09/01 09:27:36;;;;;;;7.53;3.13;;;;;;;;;;755960;184;911312;-53
2022/09/01 09:30:07;;;;;;;7.13;3.37;;;;;;;;;;752851;185;921518;-51
2022/09/01 09:32:39;;;;;;;7.07;3.20;;;;;;;;;;752031;185;920821;-53
2022/09/01 09:35:05;;;;;;;3.63;2.60;;;;;;;;;;758424;184;859322;-53
2022/09/01 09:37:31;;;;;;;5.87;2.90;;;;;;;;;;755123;184;817495;-53
2022/09/01 09:40:01;;;;;;;3.67;2.20;;;;;;;;;;754324;184;817049;-52
2022/09/01 09:42:27;;;;;;;5.50;2.07;;;;;;;;;;755516;183;818581;-53
2022/09/01 09:44:54;;;;;;;4.40;2.10;;;;;;;;;;754863;180;816916;-52
2022/09/01 09:47:24;;;;;;;4.07;2.50;;;;;;;;;;755807;184;906377;-53
2022/09/01 09:49:51;;;;;;;4.40;2.10;;;;;;;;;;751800;185;919425;-53
2022/09/01 09:52:16;;;;;;;5.23;2.40;;;;;;;;;;759292;182;919403;-53
2022/09/01 09:54:48;;;;;;;9.50;2.43;;;;;;;;;;753338;183;818859;-52
2022/09/01 09:57:14;;;;;;;5.20;2.47;;;;;;;;;;750953;185;875855;-53
2022/09/01 09:59:42;;;;;;;7.43;2.10;;;;;;;;;;753612;184;920629;-53
2022/09/01 10:02:15;;;;;;;4.20;2.20;;;;;;;;;;752780;184;917873;-52
2022/09/01 10:04:41;;;;;;;3.90;2.13;;;;;;;;;;741880;184;919500;-52
2022/09/01 10:07:26;;;;;;;3.80;1.87;;;;;;;;;;752736;184;920102;-53
2022/09/01 10:09:51;;;;;;;5.40;2.33;;;;;;;;;;747766;180;918867;-53
2022/09/01 10:12:17;;;;;;;3.55;1.90;;;;;;;;;;755801;183;920882;-53
2022/09/01 10:14:46;;;;;;;5.63;2.53;;;;;;;;;;753447;185;915315;-53
2022/09/01 10:17:12;;;;;;;3.40;2.07;;;;;;;;;;743330;187;919373;-53
2022/09/01 10:19:40;;;;;;;4.37;2.20;;;;;;;;;;748290;185;919847;-53
2022/09/01 10:22:03;;;;;;;4.35;2.30;;;;;;;;;;755731;184;921382;-54
2022/09/01 10:24:30;;;;;;;5.73;2.00;;;;;;;;;;758137;181;817242;-53
2022/09/01 10:26:58;;;;;;;5.70;2.37;;;;;;;;;;756281;183;919237;-53
2022/09/01 10:29:24;;;;;;;8.00;3.13;;;;;;;;;;748444;184;919762;-53
2022/09/01 10:31:49;;;;;;;5.40;2.50;;;;;;;;;;760981;184;903802;-53
2022/09/01 10:34:16;;;;;;;3.53;2.20;;;;;;;;;;755999;184;919670;-53
2022/09/01 10:36:41;;;;;;;10.02;2.40;;;;;;;;;;751201;184;919987;-54
2022/09/01 10:39:15;;;;;;;5.30;2.83;;;;;;;;;;759467;182;908464;-54
2022/09/01 10:41:43;;;;;;;5.43;2.13;;;;;;;;;;760829;184;795485;-53
2022/09/01 10:44:09;;;;;;;7.73;2.50;;;;;;;;;;748321;185;921396;-53
2022/09/01 10:46:44;;;;;;;5.00;2.27;;;;;;;;;;753160;185;917866;-54
2022/09/01 10:49:14;;;;;;;8.33;2.10;;;;;;;;;;754347;184;919878;-54
2022/09/01 10:51:40;;;;;;;3.80;2.20;;;;;;;;;;757475;185;817564;-53
2022/09/01 10:54:06;;;;;;;3.07;1.90;;;;;;;;;;755463;184;816656;-54
2022/09/01 10:56:36;;;;;;;4.97;2.83;;;;;;;;;;753168;184;919569;-53
2022/09/01 10:59:02;;;;;;;4.80;1.73;;;;;;;;;;752199;181;919151;-54
2022/09/01 11:01:34;;;;;;;3.30;1.83;;;;;;;;;;756534;185;921299;-53
2022/09/01 11:03:59;;;;;;;4.03;1.97;;;;;;;;;;752064;184;919511;-56
2022/09/01 11:06:30;;;;;;;24.50;3.17;;;;;;;;;;756551;184;919403;-52
2022/09/01 11:08:56;;;;;;;6.30;2.17;;;;;;;;;;749286;182;819751;-55
2022/09/01 11:11:22;;;;;;;4.10;2.10;;;;;;;;;;757074;183;919523;-54
2022/09/01 11:13:48;;;;;;;5.65;2.40;;;;;;;;;;757066;183;818108;-54
2022/09/01 11:16:20;;;;;;;9.03;2.70;;;;;;;;;;750909;184;879942;-53
2022/09/01 11:18:46;;;;;;;4.60;2.27;;;;;;;;;;758935;183;817495;-54
2022/09/01 11:21:13;;;;;;;4.43;1.77;;;;;;;;;;750562;185;909905;-53
2022/09/01 11:23:39;;;;;;;3.97;1.73;;;;;;;;;;751783;185;817533;-54
2022/09/01 11:26:10;;;;;;;6.10;2.10;;;;;;;;;;753607;184;919611;-53
2022/09/01 11:28:36;;;;;;;4.37;2.80;;;;;;;;;;760867;183;919495;-54
2022/09/01 11:31:13;;;;;;;4.90;2.40;;;;;;;;;;756140;184;919213;-53
2022/09/01 11:33:46;;;;;;;6.40;2.90;;;;;;;;;;759090;182;628246;-53
2022/09/01 11:36:13;;;;;;;6.10;2.37;;;;;;;;;;754609;184;717413;-53
2022/09/01 11:38:42;;;;;;;8.73;3.00;;;;;;;;;;755990;184;821346;-53
2022/09/01 11:41:07;;;;;;;2.93;1.93;;;;;;;;;;747442;186;892121;-54
2022/09/01 11:43:33;;;;;;;4.87;1.70;;;;;;;;;;753676;183;634443;-53
2022/09/01 11:46:18;;;;;;;6.00;1.87;;;;;;;;;;752644;184;629298;-54
2022/09/01 11:48:44;;;;;;;4.53;2.27;;;;;;;;;;750715;185;916120;-53
2022/09/01 11:51:10;;;;;;;3.00;1.80;;;;;;;;;;759901;184;915720;-54
2022/09/01 11:53:36;;;;;;;4.77;1.93;;;;;;;;;;755096;181;774152;-53
2022/09/01 11:56:08;;;;;;;3.50;2.07;;;;;;;;;;756447;184;817335;-54
2022/09/01 11:58:37;;;;;;;7.57;2.13;;;;;;;;;;753959;184;907502;-54
2022/09/01 12:01:14;;;;;;;3.60;2.00;;;;;;;;;;756578;184;918565;-54
2022/09/01 12:03:41;;;;;;;5.80;2.20;;;;;;;;;;761636;184;817306;-54
2022/09/01 12:06:07;;;;;;;6.40;1.70;;;;;;;;;;753074;184;918505;-53
2022/09/01 12:08:32;;;;;;;3.95;2.17;;;;;;;;;;752016;184;942783;-54
2022/09/01 12:11:02;;;;;;;3.07;1.60;;;;;;;;;;758346;184;817707;-53
2022/09/01 12:13:28;;;;;;;3.20;1.83;;;;;;;;;;754300;184;920393;-53
2022/09/01 12:15:54;;;;;;;5.23;2.30;;;;;;;;;;753044;184;919662;-53
2022/09/01 12:18:20;;;;;;;3.37;1.80;;;;;;;;;;751115;182;919486;-52
2022/09/01 12:20:46;;;;;;;7.60;2.10;;;;;;;;;;750431;182;919083;-54
2022/09/01 12:23:15;;;;;;;8.07;2.40;;;;;;;;;;757178;184;628821;-53
2022/09/01 12:25:41;;;;;;;3.40;1.80;;;;;;;;;;754533;184;921287;-54
2022/09/01 12:28:07;;;;;;;5.83;2.30;;;;;;;;;;757475;184;941949;-53
2022/09/01 12:30:34;;;;;;;10.63;2.00;;;;;;;;;;752946;184;919236;-53
2022/09/01 12:33:00;;;;;;;5.00;1.77;;;;;;;;;;753149;184;908590;-53
2022/09/01 12:35:25;;;;;;;4.47;1.70;;;;;;;;;;755508;181;919805;-54
2022/09/01 12:37:51;;;;;;;3.50;1.50;;;;;;;;;;754007;183;919732;-53
2022/09/01 12:40:20;;;;;;;4.73;2.17;;;;;;;;;;754093;183;919705;-53
2022/09/01 12:42:49;;;;;;;3.50;1.60;;;;;;;;;;755781;184;920283;-54
2022/09/01 12:45:14;;;;;;;3.43;1.93;;;;;;;;;;761312;182;817394;-53
2022/09/01 12:47:46;;;;;;;6.10;1.70;;;;;;;;;;749021;184;819033;-53
2022/09/01 12:50:27;;;;;;;3.30;1.50;;;;;;;;;;754320;180;919783;-52
2022/09/01 12:52:53;;;;;;;6.10;2.23;;;;;;;;;;755049;184;919832;-53
2022/09/01 12:55:20;;;;;;;3.37;1.90;;;;;;;;;;749009;186;920314;-54
2022/09/01 12:57:48;;;;;;;7.00;1.70;;;;;;;;;;747936;185;919051;-53
2022/09/01 13:00:14;;;;;;;3.23;2.33;;;;;;;;;;755406;182;919996;-53
2022/09/01 13:02:39;;;;;;;3.40;1.80;;;;;;;;;;753707;184;920008;-53
2022/09/01 13:05:11;;;;;;;2.80;1.70;;;;;;;;;;758600;184;975582;-53
2022/09/01 13:07:37;;;;;;;3.37;1.43;;;;;;;;;;755467;182;922128;-53
2022/09/01 13:10:02;;;;;;;4.68;2.10;;;;;;;;;;750256;185;920064;-53
2022/09/01 13:12:28;;;;;;;2.90;2.00;;;;;;;;;;753700;184;920599;-53
2022/09/01 13:14:54;;;;;;;5.93;2.13;;;;;;;;;;759007;183;813757;-53
2022/09/01 13:17:20;;;;;;;5.40;1.33;;;;;;;;;;751753;185;823359;-53
2022/09/01 13:19:46;;;;;;;2.47;1.23;;;;;;;;;;750808;185;916116;-53
2022/09/01 13:22:12;;;;;;;2.80;1.70;;;;;;;;;;758078;184;911519;-53
2022/09/01 13:24:38;;;;;;;3.13;1.97;;;;;;;;;;754715;184;919730;-52
2022/09/01 13:27:03;;;;;;;5.30;1.70;;;;;;;;;;756652;184;817410;-56
2022/09/01 13:29:29;;;;;;;4.00;1.47;;;;;;;;;;761851;184;714586;-53
2022/09/01 13:31:56;;;;;;;3.80;1.60;;;;;;;;;;754483;182;819485;-53
2022/09/01 13:34:21;;;;;;;5.00;1.50;;;;;;;;;;753509;184;916601;-53
2022/09/01 13:36:47;;;;;;;9.07;1.97;;;;;;;;;;754432;183;920171;-54
2022/09/01 13:39:13;;;;;;;3.07;1.67;;;;;;;;;;766244;182;635787;-53
2022/09/01 13:41:38;;;;;;;3.40;1.83;;;;;;;;;;754237;184;919803;-53
2022/09/01 13:44:04;;;;;;;3.53;1.50;;;;;;;;;;755302;183;922891;-53
2022/09/01 13:46:30;;;;;;;2.70;1.40;;;;;;;;;;757556;184;920162;-53
2022/09/01 13:48:56;;;;;;;3.55;1.52;;;;;;;;;;754846;184;918235;-53
2022/09/01 13:51:24;;;;;;;2.57;1.40;;;;;;;;;;754608;182;909001;-53
2022/09/01 13:53:49;;;;;;;3.90;1.40;;;;;;;;;;753881;184;920080;-53
2022/09/01 13:56:15;;;;;;;3.17;1.43;;;;;;;;;;754151;184;913619;-53
2022/09/01 13:58:41;;;;;;;4.15;1.75;;;;;;;;;;749045;184;923130;-53
2022/09/01 14:01:07;;;;;;;2.70;1.50;;;;;;;;;;759000;184;919942;-53
2022/09/01 14:03:33;;;;;;;8.63;1.70;;;;;;;;;;754283;184;920959;-52
2022/09/01 14:05:59;;;;;;;6.23;1.80;;;;;;;;;;750146;184;919372;-53
2022/09/01 14:08:24;;;;;;;5.78;1.50;;;;;;;;;;753126;184;918694;-53
2022/09/01 14:10:50;;;;;;;2.70;1.50;;;;;;;;;;759387;185;806566;-53
2022/09/01 14:13:16;;;;;;;3.17;1.73;;;;;;;;;;752973;185;920684;-54
2022/09/01 14:15:43;;;;;;;2.70;1.60;;;;;;;;;;753512;185;817146;-52
2022/09/01 14:18:08;;;;;;;5.30;1.23;;;;;;;;;;754417;185;916772;-52
2022/09/01 14:20:34;;;;;;;2.70;1.57;;;;;;;;;;755838;184;920083;-52
2022/09/01 14:23:00;;;;;;;3.20;1.40;;;;;;;;;;754926;184;919516;-53
2022/09/01 14:25:25;;;;;;;5.45;2.75;;;;;;;;;;753618;181;913366;-53
2022/09/01 14:27:52;;;;;;;4.00;2.30;;;;;;;;;;756291;184;921646;-53
2022/09/01 14:30:18;;;;;;;6.40;2.40;;;;;;;;;;754816;184;907630;-54